YSNW/NOA METAR and TAF weather

Enter ICAO airport designator
Station Type Date Time Source
YSNW METAR 2022/01/23 11:00 UTC NOAA

YSNW 231100Z AUTO 00000KT 9999 // OVC044 20/18 Q1016


Station Type Date Time Source
YSNW Decoded METAR 2022/01/23 11:00 UTC NOAA

Nowra Ran Air Station, Australia (YSNW) 34-57S 150-32E 110M
Jan 23, 2022 - 06:00 AM EST / 2022.01.23 1100 UTC
Wind: Calm:0
Visibility: greater than 7 mile(s):0
Sky conditions: overcast
Temperature: 68 F (20 C)
Dew Point: 64 F (18 C)
Relative Humidity: 88%
Pressure (altimeter): 30.00 in. Hg (1016 hPa)
ob: YSNW 231100Z AUTO 00000KT 9999 // OVC044 20/18 Q1016
cycle: 11

Station Type Date Time Source
YSNW TAF UTC NOAA

Error!

Example: see airport list